createdAt,value
2023-04-17T00:02:29.850Z,12.73
2023-04-17T00:04:57.590Z,12.97
2023-04-17T00:07:28.373Z,12.00
2023-04-17T00:09:55.770Z,11.93
2023-04-17T00:12:23.161Z,12.77
2023-04-17T00:14:50.566Z,11.90
2023-04-17T00:17:19.305Z,12.00
2023-04-17T00:19:47.507Z,11.73
2023-04-17T00:22:14.901Z,11.20
2023-04-17T00:24:42.294Z,12.40
2023-04-17T00:27:09.899Z,11.50
2023-04-17T00:29:37.432Z,12.10
2023-04-17T00:32:05.057Z,12.53
2023-04-17T00:34:33.872Z,11.90
2023-04-17T00:37:01.405Z,11.03
2023-04-17T00:39:28.823Z,11.67
2023-04-17T00:41:56.436Z,11.60
2023-04-17T00:44:23.832Z,10.53
2023-04-17T00:46:51.246Z,12.23
2023-04-17T00:49:18.646Z,11.73
2023-04-17T00:51:47.400Z,11.03
2023-04-17T00:54:14.945Z,11.13
2023-04-17T00:56:42.731Z,11.20
2023-04-17T00:59:12.801Z,11.73
2023-04-17T01:01:40.615Z,12.63
2023-04-17T01:04:09.932Z,10.97
2023-04-17T01:06:37.772Z,13.97
2023-04-17T01:09:07.624Z,12.43
2023-04-17T01:11:35.180Z,14.77
2023-04-17T01:14:02.725Z,13.63
2023-04-17T01:16:30.832Z,12.37
2023-04-17T01:18:58.490Z,11.53
2023-04-17T01:21:26.181Z,11.43
2023-04-17T01:23:53.758Z,12.37
2023-04-17T01:26:27.157Z,11.73
2023-04-17T01:28:56.100Z,12.13
2023-04-17T01:31:24.055Z,11.37
2023-04-17T01:33:52.324Z,11.17
2023-04-17T01:36:19.961Z,11.90
2023-04-17T01:38:47.380Z,13.47
2023-04-17T01:41:14.821Z,11.67
2023-04-17T01:43:44.816Z,11.40
2023-04-17T01:46:12.293Z,12.37
2023-04-17T01:48:39.839Z,11.57
2023-04-17T01:51:07.257Z,12.63
2023-04-17T01:53:35.173Z,12.20
2023-04-17T01:56:02.557Z,12.13
2023-04-17T01:58:30.967Z,12.63
2023-04-17T02:01:00.204Z,12.70
2023-04-17T02:03:28.923Z,11.83
2023-04-17T02:05:56.545Z,12.90
2023-04-17T02:08:24.175Z,12.13
2023-04-17T02:10:51.603Z,12.77
2023-04-17T02:13:19.036Z,12.10
2023-04-17T02:15:46.432Z,12.97
2023-04-17T02:18:15.457Z,12.73
2023-04-17T02:20:42.885Z,11.60
2023-04-17T02:23:10.337Z,12.30
2023-04-17T02:25:37.680Z,13.23
2023-04-17T02:28:05.677Z,11.70
2023-04-17T02:30:35.022Z,12.67
2023-04-17T02:33:02.556Z,12.53
2023-04-17T02:35:32.494Z,12.00
2023-04-17T02:38:00.155Z,12.30
2023-04-17T02:40:28.488Z,12.67
2023-04-17T02:43:02.175Z,12.57
2023-04-17T02:45:30.616Z,13.40
2023-04-17T02:47:58.089Z,12.63
2023-04-17T02:50:25.754Z,13.37
2023-04-17T02:53:11.638Z,12.07
2023-04-17T02:55:39.027Z,12.77
2023-04-17T02:58:06.495Z,12.70
2023-04-17T03:00:33.980Z,14.00
2023-04-17T03:03:02.863Z,12.53
2023-04-17T03:05:31.084Z,14.03
2023-04-17T03:08:00.675Z,13.80
2023-04-17T03:10:34.841Z,12.07
2023-04-17T03:13:03.533Z,11.93
2023-04-17T03:15:33.056Z,14.40
2023-04-17T03:18:00.468Z,13.40
2023-04-17T03:20:27.999Z,13.03
2023-04-17T03:22:55.963Z,12.20
2023-04-17T03:25:23.592Z,12.83
2023-04-17T03:27:56.366Z,13.67
2023-04-17T03:30:29.107Z,12.97
2023-04-17T03:32:58.820Z,13.37
2023-04-17T03:35:29.950Z,13.53
2023-04-17T03:37:57.387Z,12.33
2023-04-17T03:40:24.960Z,14.93
2023-04-17T03:42:52.316Z,13.00
2023-04-17T03:45:21.144Z,12.73
2023-04-17T03:47:48.650Z,12.07
2023-04-17T03:50:16.443Z,11.90
2023-04-17T03:52:50.450Z,13.57
2023-04-17T03:55:17.952Z,13.23
2023-04-17T03:57:48.421Z,12.50
2023-04-17T04:00:16.384Z,11.40
2023-04-17T04:02:49.121Z,12.57
2023-04-17T04:05:20.914Z,12.30
2023-04-17T04:07:48.380Z,12.17
2023-04-17T04:10:23.409Z,11.30
2023-04-17T04:12:50.969Z,12.80
2023-04-17T04:15:18.681Z,11.60
2023-04-17T04:17:51.120Z,11.97
2023-04-17T04:20:18.969Z,11.20
2023-04-17T04:22:48.749Z,11.37
2023-04-17T04:25:17.182Z,10.37
2023-04-17T04:27:50.580Z,10.10
2023-04-17T04:30:25.392Z,10.70
2023-04-17T04:33:00.964Z,11.03
2023-04-17T04:35:30.053Z,10.90
2023-04-17T04:38:01.857Z,11.63
2023-04-17T04:40:35.920Z,11.83
2023-04-17T04:43:04.570Z,13.63
2023-04-17T04:45:38.292Z,11.30
2023-04-17T04:48:07.200Z,10.43
2023-04-17T04:50:34.779Z,12.10
2023-04-17T04:53:02.160Z,11.43
2023-04-17T04:56:05.423Z,11.27
2023-04-17T04:58:34.641Z,10.83
2023-04-17T05:01:04.089Z,10.97
2023-04-17T05:03:39.004Z,10.83
2023-04-17T05:06:07.859Z,11.73
2023-04-17T05:08:42.797Z,12.00
2023-04-17T05:11:12.479Z,12.60
2023-04-17T05:13:40.283Z,11.93
2023-04-17T05:16:13.846Z,13.53
2023-04-17T05:18:44.056Z,11.93
2023-04-17T05:21:14.512Z,10.33
2023-04-17T05:23:41.907Z,11.03
2023-04-17T05:26:09.355Z,11.83
2023-04-17T05:28:36.754Z,10.47
2023-04-17T05:31:04.288Z,10.13
2023-04-17T05:33:36.349Z,10.97
2023-04-17T05:36:07.530Z,9.90
2023-04-17T05:38:38.481Z,10.53
2023-04-17T05:41:08.443Z,10.87
2023-04-17T05:43:35.898Z,10.60
2023-04-17T05:46:03.391Z,11.23
2023-04-17T05:48:31.100Z,10.43
2023-04-17T05:50:58.460Z,10.63
2023-04-17T05:53:27.276Z,10.57
2023-04-17T05:55:58.050Z,9.90
2023-04-17T05:58:25.887Z,9.23
2023-04-17T06:00:56.781Z,8.83
2023-04-17T06:03:25.785Z,9.03
2023-04-17T06:06:00.777Z,8.90
2023-04-17T06:08:29.544Z,9.33
2023-04-17T06:10:57.015Z,9.37
2023-04-17T06:13:25.367Z,10.33
2023-04-17T06:15:54.044Z,10.30
2023-04-17T06:18:21.498Z,10.83
2023-04-17T06:20:48.904Z,11.00
2023-04-17T06:23:16.478Z,10.10
2023-04-17T06:25:45.199Z,11.17
2023-04-17T06:28:13.193Z,12.10
2023-04-17T06:30:40.816Z,11.23
2023-04-17T06:33:08.963Z,8.00
2023-04-17T06:35:37.703Z,8.70
2023-04-17T06:38:16.280Z,5.47
2023-04-17T06:40:46.402Z,6.00
2023-04-17T06:43:13.863Z,7.47
2023-04-17T06:45:42.662Z,6.47
2023-04-17T06:48:10.235Z,5.67
2023-04-17T06:50:39.589Z,3.83
2023-04-17T06:53:07.241Z,2.60
2023-04-17T06:55:34.666Z,3.00
2023-04-17T06:58:04.142Z,6.33
2023-04-17T07:00:31.559Z,5.20
2023-04-17T07:02:59.073Z,5.00
2023-04-17T07:05:26.598Z,4.03
2023-04-17T07:07:55.101Z,3.70
2023-04-17T07:10:22.457Z,3.37
2023-04-17T07:12:49.811Z,3.53
2023-04-17T07:15:18.826Z,4.13
2023-04-17T07:17:46.332Z,4.60
2023-04-17T07:20:13.826Z,4.50
2023-04-17T07:22:41.472Z,4.10
2023-04-17T07:25:09.053Z,4.43
2023-04-17T07:27:38.274Z,4.50
2023-04-17T07:30:07.428Z,4.90
2023-04-17T07:32:36.627Z,5.53
2023-04-17T07:35:04.442Z,5.33
2023-04-17T07:37:32.736Z,5.57
2023-04-17T07:40:00.212Z,5.10
2023-04-17T07:42:28.380Z,4.70
2023-04-17T07:44:55.814Z,4.73
2023-04-17T07:47:23.935Z,4.10
2023-04-17T07:49:52.772Z,4.77
2023-04-17T07:52:20.178Z,4.47
2023-04-17T07:54:47.623Z,4.67
2023-04-17T07:57:15.463Z,3.90
2023-04-17T07:59:43.012Z,4.50
2023-04-17T08:02:10.525Z,4.33
2023-04-17T08:04:40.181Z,4.30
2023-04-17T08:07:11.047Z,4.37
2023-04-17T08:09:38.604Z,3.93
2023-04-17T08:12:06.328Z,3.53
2023-04-17T08:14:33.771Z,4.10
2023-04-17T08:17:01.784Z,3.93
2023-04-17T08:19:29.878Z,7.73
2023-04-17T08:22:01.905Z,3.70
2023-04-17T08:24:31.368Z,3.23
2023-04-17T08:26:59.090Z,3.00
2023-04-17T08:29:26.978Z,3.50
2023-04-17T08:32:10.416Z,3.60
2023-04-17T08:34:41.181Z,3.63
2023-04-17T08:37:08.565Z,3.77
2023-04-17T08:39:37.298Z,4.37
2023-04-17T08:42:07.831Z,4.00
2023-04-17T08:44:35.392Z,4.33
2023-04-17T08:47:04.424Z,4.03
2023-04-17T08:49:34.696Z,4.17
2023-04-17T08:52:02.902Z,4.20
2023-04-17T08:54:30.458Z,4.00
2023-04-17T08:57:02.285Z,4.00
2023-04-17T08:59:29.665Z,4.63
2023-04-17T09:02:00.836Z,4.13
2023-04-17T09:04:38.982Z,4.50
2023-04-17T09:07:07.088Z,3.90
2023-04-17T09:09:50.749Z,4.00
2023-04-17T09:12:19.684Z,3.50
2023-04-17T09:14:47.213Z,3.70
2023-04-17T09:17:17.082Z,3.00
2023-04-17T09:20:02.214Z,3.23
2023-04-17T09:22:29.586Z,2.80
2023-04-17T09:24:57.822Z,3.17
2023-04-17T09:27:27.399Z,3.17
2023-04-17T09:29:58.763Z,2.87
2023-04-17T09:32:26.588Z,2.80
2023-04-17T09:34:54.122Z,2.90
2023-04-17T09:37:22.026Z,2.90
2023-04-17T09:39:56.373Z,2.90
2023-04-17T09:42:24.022Z,3.27
2023-04-17T09:44:52.895Z,3.70
2023-04-17T09:47:20.303Z,3.83
2023-04-17T09:49:50.132Z,3.33
2023-04-17T09:52:17.755Z,3.30
2023-04-17T09:54:46.314Z,3.37
2023-04-17T09:57:13.939Z,3.33
2023-04-17T09:59:41.635Z,3.80
2023-04-17T10:02:11.476Z,3.60
2023-04-17T10:04:40.762Z,3.20
2023-04-17T10:07:08.204Z,3.73
2023-04-17T10:09:35.622Z,3.90
2023-04-17T10:12:04.338Z,3.90
2023-04-17T10:14:33.143Z,3.87
2023-04-17T10:17:00.643Z,4.20
2023-04-17T10:19:30.861Z,3.60
2023-04-17T10:22:17.915Z,3.90
2023-04-17T10:24:47.121Z,3.67
2023-04-17T10:27:29.371Z,3.60
2023-04-17T10:29:57.711Z,3.60
2023-04-17T10:32:28.239Z,3.87
2023-04-17T10:34:58.041Z,3.50
2023-04-17T10:37:42.342Z,4.10
2023-04-17T10:40:12.476Z,3.47
2023-04-17T10:42:40.899Z,3.37
2023-04-17T10:45:18.971Z,3.23
2023-04-17T10:47:58.851Z,3.77
2023-04-17T10:50:29.885Z,3.67
2023-04-17T10:52:57.271Z,3.50
2023-04-17T10:55:27.742Z,3.40
2023-04-17T10:57:56.421Z,3.10
2023-04-17T11:00:29.319Z,3.40
2023-04-17T11:02:56.806Z,3.80
2023-04-17T11:05:24.880Z,3.70
2023-04-17T11:07:54.265Z,3.40
2023-04-17T11:10:22.754Z,3.43
2023-04-17T11:12:51.133Z,3.67
2023-04-17T11:15:18.721Z,4.40
2023-04-17T11:17:49.335Z,3.77
2023-04-17T11:20:21.226Z,4.27
2023-04-17T11:22:48.843Z,3.53
2023-04-17T11:25:24.430Z,3.53
2023-04-17T11:27:52.785Z,3.40
2023-04-17T11:30:27.756Z,3.13
2023-04-17T11:32:55.149Z,4.00
2023-04-17T11:35:24.805Z,3.37
2023-04-17T11:38:05.703Z,3.27
2023-04-17T11:40:34.565Z,3.40
2023-04-17T11:43:07.244Z,3.67
2023-04-17T11:45:34.822Z,2.93
2023-04-17T11:48:03.608Z,3.00
2023-04-17T11:50:31.413Z,3.20
2023-04-17T11:53:00.520Z,2.70
2023-04-17T11:55:31.029Z,3.47
2023-04-17T11:58:00.517Z,2.93
2023-04-17T12:00:31.599Z,3.00
2023-04-17T12:02:59.620Z,2.90
2023-04-17T12:05:28.072Z,3.13
2023-04-17T12:08:02.907Z,3.23
2023-04-17T12:10:37.159Z,3.03
2023-04-17T12:13:06.094Z,2.50
2023-04-17T12:15:33.449Z,2.80
2023-04-17T12:18:05.306Z,3.03
2023-04-17T12:20:36.153Z,2.67
2023-04-17T12:23:03.947Z,3.00
2023-04-17T12:25:31.926Z,2.83
2023-04-17T12:28:00.027Z,3.00
2023-04-17T12:30:29.734Z,2.63
2023-04-17T12:32:57.212Z,2.90
2023-04-17T12:35:24.802Z,2.90
2023-04-17T12:37:52.173Z,2.97
2023-04-17T12:40:23.016Z,2.80
2023-04-17T12:42:51.929Z,2.60
2023-04-17T12:45:19.590Z,3.10
2023-04-17T12:47:48.363Z,2.80
2023-04-17T12:50:15.937Z,3.03
2023-04-17T12:52:43.504Z,2.40
2023-04-17T12:55:11.410Z,2.90
2023-04-17T12:57:39.963Z,2.53
2023-04-17T13:00:09.184Z,2.67
2023-04-17T13:02:37.278Z,2.50
2023-04-17T13:05:06.920Z,2.73
2023-04-17T13:07:34.437Z,2.50
2023-04-17T13:10:01.857Z,2.90
2023-04-17T13:12:29.280Z,2.87
2023-04-17T13:14:57.523Z,3.03
2023-04-17T13:17:25.305Z,3.27
2023-04-17T13:19:52.867Z,2.97
2023-04-17T13:22:22.164Z,2.70
2023-04-17T13:24:49.620Z,2.90
2023-04-17T13:27:17.031Z,2.50
2023-04-17T13:29:45.619Z,2.80
2023-04-17T13:32:13.105Z,3.10
2023-04-17T13:34:40.482Z,2.70
2023-04-17T13:37:08.498Z,2.77
2023-04-17T13:39:37.261Z,2.70
2023-04-17T13:42:04.831Z,2.70
2023-04-17T13:44:32.371Z,2.80
2023-04-17T13:46:59.766Z,2.80
2023-04-17T13:49:27.953Z,3.07
2023-04-17T13:51:55.410Z,3.17
2023-04-17T13:54:22.955Z,2.87
2023-04-17T13:56:51.751Z,2.63
2023-04-17T13:59:19.185Z,2.60
2023-04-17T14:01:46.661Z,2.40
2023-04-17T14:04:14.794Z,2.73
2023-04-17T14:06:44.024Z,2.13
2023-04-17T14:09:12.131Z,2.40
2023-04-17T14:11:39.755Z,2.30
2023-04-17T14:14:08.505Z,2.53
2023-04-17T14:16:35.872Z,2.30
2023-04-17T14:19:12.566Z,3.10
2023-04-17T14:21:41.790Z,2.50
2023-04-17T14:24:09.250Z,2.57
2023-04-17T14:26:37.417Z,2.67
2023-04-17T14:29:05.079Z,2.33
2023-04-17T14:31:33.926Z,2.20
2023-04-17T14:34:01.710Z,2.27
2023-04-17T14:36:29.443Z,2.33
2023-04-17T14:38:57.128Z,1.90
2023-04-17T14:41:29.686Z,1.93
2023-04-17T14:43:57.096Z,1.80
2023-04-17T14:46:24.613Z,1.53
2023-04-17T14:48:55.977Z,1.70
2023-04-17T14:51:23.767Z,1.60
2023-04-17T14:53:53.116Z,1.60
2023-04-17T14:56:21.247Z,1.93
2023-04-17T14:58:48.646Z,1.80
2023-04-17T15:01:16.144Z,1.70
2023-04-17T15:03:46.738Z,1.80
2023-04-17T15:06:16.964Z,1.83
2023-04-17T15:08:45.951Z,1.80
2023-04-17T15:11:13.445Z,1.80
2023-04-17T15:13:40.915Z,1.83
2023-04-17T15:16:09.801Z,1.87
2023-04-17T15:18:39.250Z,1.87
2023-04-17T15:21:06.939Z,2.30
2023-04-17T15:23:35.837Z,2.30
2023-04-17T15:26:03.228Z,2.10
2023-04-17T15:28:30.642Z,2.43
2023-04-17T15:30:58.048Z,2.43
2023-04-17T15:33:25.476Z,2.40
2023-04-17T15:35:54.620Z,2.67
2023-04-17T15:38:22.033Z,2.17
2023-04-17T15:40:50.803Z,1.90
2023-04-17T15:43:18.252Z,2.10
2023-04-17T15:45:45.798Z,2.40
2023-04-17T15:48:13.212Z,2.53
2023-04-17T15:50:40.648Z,2.70
2023-04-17T15:53:08.992Z,2.43
2023-04-17T15:55:37.023Z,2.73
2023-04-17T15:58:05.832Z,2.87
2023-04-17T16:00:34.015Z,3.00
2023-04-17T16:03:01.611Z,2.90
2023-04-17T16:05:30.186Z,3.27
2023-04-17T16:07:57.859Z,3.00
2023-04-17T16:10:25.397Z,2.73
2023-04-17T16:12:52.754Z,3.03
2023-04-17T16:15:21.458Z,3.10
2023-04-17T16:17:49.201Z,3.33
2023-04-17T16:20:16.661Z,3.10
2023-04-17T16:22:44.058Z,3.40
2023-04-17T16:25:12.447Z,2.80
2023-04-17T16:27:40.326Z,3.27
2023-04-17T16:30:08.694Z,3.10
2023-04-17T16:32:37.513Z,2.63
2023-04-17T16:35:05.254Z,2.80
2023-04-17T16:37:32.622Z,2.70
2023-04-17T16:40:04.390Z,2.40
2023-04-17T16:42:31.916Z,2.73
2023-04-17T16:44:59.380Z,2.80
2023-04-17T16:47:26.835Z,2.43
2023-04-17T16:49:55.732Z,2.57
2023-04-17T16:52:23.283Z,2.27
2023-04-17T16:54:50.658Z,2.60
2023-04-17T16:57:18.060Z,2.70
2023-04-17T16:59:45.418Z,2.87
2023-04-17T17:02:13.808Z,2.47
2023-04-17T17:04:41.382Z,2.60
2023-04-17T17:07:10.153Z,2.83
2023-04-17T17:09:37.596Z,2.70
2023-04-17T17:12:05.233Z,2.60
2023-04-17T17:14:32.668Z,2.50
2023-04-17T17:17:00.270Z,2.80
2023-04-17T17:19:27.930Z,2.63
2023-04-17T17:21:55.993Z,2.60
2023-04-17T17:24:24.702Z,2.47
2023-04-17T17:26:52.109Z,3.00
2023-04-17T17:29:19.473Z,2.80
2023-04-17T17:31:46.862Z,3.53
2023-04-17T17:36:44.619Z,2.90
2023-04-17T17:39:12.217Z,2.57
2023-04-17T17:41:41.096Z,2.20
2023-04-17T17:44:08.498Z,2.20
2023-04-17T17:46:36.990Z,2.37
2023-04-17T17:49:04.427Z,2.30
2023-04-17T17:51:32.533Z,2.50
2023-04-17T17:53:59.873Z,2.47
2023-04-17T17:56:28.250Z,2.50
2023-04-17T17:58:56.964Z,2.57
2023-04-17T18:01:24.950Z,2.60
2023-04-17T18:03:52.905Z,2.33
2023-04-17T18:06:21.036Z,2.40
2023-04-17T18:08:48.676Z,2.60
2023-04-17T18:11:16.060Z,2.90
2023-04-17T18:13:43.483Z,2.50
2023-04-17T18:16:12.342Z,3.00
2023-04-17T18:18:39.888Z,3.00
2023-04-17T18:21:07.383Z,3.00
2023-04-17T18:23:34.832Z,2.80
2023-04-17T18:26:03.584Z,2.83
2023-04-17T18:28:31.090Z,2.50
2023-04-17T18:30:58.476Z,2.70
2023-04-17T18:33:28.692Z,2.70
2023-04-17T18:35:56.152Z,2.73
2023-04-17T18:38:23.518Z,2.73
2023-04-17T18:40:53.915Z,3.10
2023-04-17T18:43:21.373Z,3.10
2023-04-17T18:45:48.768Z,3.20
2023-04-17T18:48:16.358Z,3.17
2023-04-17T18:50:45.314Z,3.57
2023-04-17T18:53:12.759Z,3.90
2023-04-17T18:55:40.253Z,3.83
2023-04-17T18:58:07.622Z,3.43
2023-04-17T19:00:36.347Z,3.43
2023-04-17T19:03:03.839Z,3.87
2023-04-17T19:05:31.364Z,3.40
2023-04-17T19:08:00.235Z,3.30
2023-04-17T19:10:29.857Z,3.80
2023-04-17T19:12:57.244Z,4.03
2023-04-17T19:15:24.665Z,4.20
2023-04-17T19:17:52.591Z,4.43
2023-04-17T19:20:20.386Z,4.47
2023-04-17T19:22:47.802Z,4.00
2023-04-17T19:25:16.669Z,4.03
2023-04-17T19:27:44.047Z,3.90
2023-04-17T19:30:11.894Z,3.87
2023-04-17T19:32:39.326Z,4.60
2023-04-17T19:35:07.493Z,3.23
2023-04-17T19:37:34.938Z,3.73
2023-04-17T19:40:06.264Z,3.30
2023-04-17T19:42:40.039Z,3.13
2023-04-17T19:45:08.072Z,3.00
2023-04-17T19:47:35.688Z,3.10
2023-04-17T19:50:03.108Z,3.03
2023-04-17T19:52:31.182Z,2.87
2023-04-17T19:54:58.533Z,3.17
2023-04-17T19:57:25.996Z,3.07
2023-04-17T19:59:54.746Z,3.20
2023-04-17T20:02:22.334Z,3.13
2023-04-17T20:04:49.863Z,2.93
2023-04-17T20:07:17.286Z,3.20
2023-04-17T20:09:44.736Z,3.20
2023-04-17T20:12:12.132Z,3.00
2023-04-17T20:14:39.535Z,3.00
2023-04-17T20:17:08.533Z,3.20
2023-04-17T20:19:36.085Z,3.10
2023-04-17T20:22:03.535Z,3.67
2023-04-17T20:24:30.900Z,3.70
2023-04-17T20:26:58.587Z,3.50
2023-04-17T20:29:27.007Z,3.50
2023-04-17T20:31:54.442Z,3.77
2023-04-17T20:34:23.187Z,3.47
2023-04-17T20:36:50.584Z,3.57
2023-04-17T20:39:17.980Z,3.40
2023-04-17T20:41:45.961Z,3.60
2023-04-17T20:44:15.342Z,3.83
2023-04-17T20:46:42.842Z,3.93
2023-04-17T20:49:10.328Z,3.40
2023-04-17T20:51:39.160Z,4.17
2023-04-17T20:54:06.600Z,4.30
2023-04-17T20:56:34.065Z,4.00
2023-04-17T20:59:01.481Z,4.17
2023-04-17T21:01:28.898Z,3.73
2023-04-17T21:03:56.378Z,3.83
2023-04-17T21:06:24.224Z,4.33
2023-04-17T21:08:52.925Z,3.53
2023-04-17T21:11:21.312Z,4.30
2023-04-17T21:13:48.918Z,5.53
2023-04-17T21:16:16.283Z,4.17
2023-04-17T21:18:43.723Z,4.10
2023-04-17T21:21:11.118Z,4.17
2023-04-17T21:23:38.566Z,4.40
2023-04-17T21:26:07.293Z,4.10
2023-04-17T21:28:36.748Z,4.40
2023-04-17T21:31:08.297Z,3.97
2023-04-17T21:33:36.452Z,4.20
2023-04-17T21:36:03.913Z,4.53
2023-04-17T21:38:31.294Z,3.83
2023-04-17T21:40:58.760Z,4.37
2023-04-17T21:43:27.481Z,4.07
2023-04-17T21:45:56.967Z,3.90
2023-04-17T21:48:24.450Z,4.03
2023-04-17T21:50:52.587Z,4.17
2023-04-17T21:53:19.916Z,4.13
2023-04-17T21:55:47.300Z,3.60
2023-04-17T21:58:14.723Z,4.00
2023-04-17T22:00:43.511Z,4.23
2023-04-17T22:03:11.111Z,3.90
2023-04-17T22:05:38.614Z,3.70
2023-04-17T22:08:06.110Z,3.80
2023-04-17T22:10:33.533Z,4.07
2023-04-17T22:13:00.900Z,4.27
2023-04-17T22:15:28.324Z,4.00
2023-04-17T22:17:58.727Z,4.07
2023-04-17T22:20:26.325Z,4.00
2023-04-17T22:22:54.349Z,4.13
2023-04-17T22:25:21.841Z,4.37
2023-04-17T22:27:49.189Z,4.13
2023-04-17T22:30:16.635Z,4.00
2023-04-17T22:32:44.221Z,4.37
2023-04-17T22:35:12.970Z,4.20
2023-04-17T22:37:40.319Z,4.20
2023-04-17T22:40:08.474Z,4.30
2023-04-17T22:42:35.852Z,4.00
2023-04-17T22:45:03.310Z,4.10
2023-04-17T22:47:30.766Z,4.20
2023-04-17T22:49:58.870Z,4.47
2023-04-17T22:52:27.597Z,4.00
2023-04-17T22:54:54.970Z,4.30
2023-04-17T22:57:22.412Z,4.17
2023-04-17T22:59:49.784Z,3.83
2023-04-17T23:02:17.199Z,4.03
2023-04-17T23:04:44.643Z,3.70
2023-04-17T23:07:12.043Z,3.63
2023-04-17T23:09:40.811Z,4.23
2023-04-17T23:12:08.196Z,4.17
2023-04-17T23:14:35.559Z,4.07
2023-04-17T23:17:02.936Z,3.90
2023-04-17T23:19:30.347Z,4.07
2023-04-17T23:21:59.243Z,3.67
2023-04-17T23:24:26.696Z,4.23
2023-04-17T23:26:56.067Z,3.90
2023-04-17T23:29:23.449Z,4.00
2023-04-17T23:31:50.964Z,3.37
2023-04-17T23:34:18.408Z,3.83
2023-04-17T23:36:45.857Z,4.10
2023-04-17T23:39:13.204Z,3.93
2023-04-17T23:41:42.800Z,3.97
2023-04-17T23:44:11.789Z,4.00
2023-04-17T23:46:39.387Z,4.40
2023-04-17T23:49:06.793Z,4.10
2023-04-17T23:51:34.828Z,4.13
2023-04-17T23:54:02.233Z,4.40
2023-04-17T23:56:30.990Z,3.97
2023-04-17T23:58:58.442Z,4.63
